sensor_id;sensor_type;location;lat;lon;timestamp;pressure;altitude;pressure_sealevel;temperature;humidity
26775;BME280;14362;51.902;7.626;2023-06-04T00:03:34;101517.09;;;13.87;100.00
26775;BME280;14362;51.902;7.626;2023-06-04T00:07:39;101515.59;;;13.81;100.00
26775;BME280;14362;51.902;7.626;2023-06-04T00:11:41;101514.28;;;13.87;100.00
26775;BME280;14362;51.902;7.626;2023-06-04T00:15:42;101517.22;;;13.74;100.00
26775;BME280;14362;51.902;7.626;2023-06-04T00:19:44;101515.41;;;13.69;100.00
26775;BME280;14362;51.902;7.626;2023-06-04T00:23:46;101506.84;;;13.66;100.00
26775;BME280;14362;51.902;7.626;2023-06-04T00:27:48;101510.28;;;13.63;100.00
26775;BME280;14362;51.902;7.626;2023-06-04T00:31:49;101514.91;;;13.59;100.00
26775;BME280;14362;51.902;7.626;2023-06-04T00:35:51;101508.63;;;13.53;100.00
26775;BME280;14362;51.902;7.626;2023-06-04T00:39:53;101507.44;;;13.46;100.00
26775;BME280;14362;51.902;7.626;2023-06-04T00:43:55;101505.28;;;13.43;100.00
26775;BME280;14362;51.902;7.626;2023-06-04T00:47:57;101508.59;;;13.45;100.00
26775;BME280;14362;51.902;7.626;2023-06-04T00:51:59;101500.97;;;13.37;100.00
26775;BME280;14362;51.902;7.626;2023-06-04T00:56:02;101505.25;;;13.26;100.00
26775;BME280;14362;51.902;7.626;2023-06-04T01:00:06;101499.44;;;13.23;100.00
26775;BME280;14362;51.902;7.626;2023-06-04T01:04:12;101496.97;;;13.21;100.00
26775;BME280;14362;51.902;7.626;2023-06-04T01:08:15;101502.72;;;13.16;100.00
26775;BME280;14362;51.902;7.626;2023-06-04T01:12:18;101502.88;;;13.11;100.00
26775;BME280;14362;51.902;7.626;2023-06-04T01:16:19;101498.56;;;13.05;100.00
26775;BME280;14362;51.902;7.626;2023-06-04T01:20:32;101503.66;;;13.03;100.00
26775;BME280;14362;51.902;7.626;2023-06-04T01:24:37;101498.69;;;13.00;100.00
26775;BME280;14362;51.902;7.626;2023-06-04T01:28:44;101497.38;;;12.98;100.00
26775;BME280;14362;51.902;7.626;2023-06-04T01:32:47;101489.63;;;12.95;100.00
26775;BME280;14362;51.902;7.626;2023-06-04T01:36:48;101491.50;;;12.86;100.00
26775;BME280;14362;51.902;7.626;2023-06-04T01:40:51;101481.09;;;12.78;100.00
26775;BME280;14362;51.902;7.626;2023-06-04T01:44:57;101482.25;;;12.77;100.00
26775;BME280;14362;51.902;7.626;2023-06-04T01:48:59;101485.81;;;12.69;100.00
26775;BME280;14362;51.902;7.626;2023-06-04T01:53:00;101487.13;;;12.63;100.00
26775;BME280;14362;51.902;7.626;2023-06-04T01:57:02;101489.19;;;12.57;100.00
26775;BME280;14362;51.902;7.626;2023-06-04T02:01:04;101491.94;;;12.49;100.00
26775;BME280;14362;51.902;7.626;2023-06-04T02:05:07;101491.13;;;12.48;100.00
26775;BME280;14362;51.902;7.626;2023-06-04T02:09:09;101495.88;;;12.48;100.00
26775;BME280;14362;51.902;7.626;2023-06-04T02:13:10;101498.59;;;12.39;100.00
26775;BME280;14362;51.902;7.626;2023-06-04T02:17:13;101497.41;;;12.32;100.00
26775;BME280;14362;51.902;7.626;2023-06-04T02:21:16;101495.13;;;12.34;100.00
26775;BME280;14362;51.902;7.626;2023-06-04T02:25:17;101490.78;;;12.28;100.00
26775;BME280;14362;51.902;7.626;2023-06-04T02:29:19;101497.53;;;12.27;100.00
26775;BME280;14362;51.902;7.626;2023-06-04T02:33:21;101493.53;;;12.20;100.00
26775;BME280;14362;51.902;7.626;2023-06-04T02:37:23;101510.94;;;12.17;100.00
26775;BME280;14362;51.902;7.626;2023-06-04T02:41:24;101506.09;;;12.09;100.00
26775;BME280;14362;51.902;7.626;2023-06-04T02:45:26;101509.84;;;12.04;100.00
26775;BME280;14362;51.902;7.626;2023-06-04T02:49:30;101512.13;;;12.02;100.00
26775;BME280;14362;51.902;7.626;2023-06-04T02:53:31;101515.03;;;11.97;100.00
26775;BME280;14362;51.902;7.626;2023-06-04T02:57:33;101507.50;;;11.98;100.00
26775;BME280;14362;51.902;7.626;2023-06-04T03:01:34;101513.72;;;11.95;100.00
26775;BME280;14362;51.902;7.626;2023-06-04T03:05:37;101516.72;;;11.85;100.00
26775;BME280;14362;51.902;7.626;2023-06-04T03:09:40;101513.31;;;11.88;100.00
26775;BME280;14362;51.902;7.626;2023-06-04T03:13:41;101513.63;;;11.86;100.00
26775;BME280;14362;51.902;7.626;2023-06-04T03:17:43;101512.78;;;11.86;100.00
26775;BME280;14362;51.902;7.626;2023-06-04T03:21:45;101512.50;;;11.87;100.00
26775;BME280;14362;51.902;7.626;2023-06-04T03:25:52;101508.97;;;11.82;100.00
26775;BME280;14362;51.902;7.626;2023-06-04T03:29:53;101508.25;;;11.76;100.00
26775;BME280;14362;51.902;7.626;2023-06-04T03:33:55;101508.28;;;11.63;100.00
26775;BME280;14362;51.902;7.626;2023-06-04T03:37:57;101512.53;;;11.60;100.00
26775;BME280;14362;51.902;7.626;2023-06-04T03:41:59;101517.69;;;11.53;100.00
26775;BME280;14362;51.902;7.626;2023-06-04T03:46:00;101506.63;;;11.48;100.00
26775;BME280;14362;51.902;7.626;2023-06-04T03:50:02;101506.31;;;11.50;100.00
26775;BME280;14362;51.902;7.626;2023-06-04T03:54:05;101501.56;;;11.37;100.00
26775;BME280;14362;51.902;7.626;2023-06-04T03:58:07;101504.56;;;11.40;100.00
26775;BME280;14362;51.902;7.626;2023-06-04T04:02:09;101510.97;;;11.41;100.00
26775;BME280;14362;51.902;7.626;2023-06-04T04:06:11;101510.66;;;11.42;100.00
26775;BME280;14362;51.902;7.626;2023-06-04T04:10:14;101509.00;;;11.41;100.00
26775;BME280;14362;51.902;7.626;2023-06-04T04:14:15;101519.56;;;11.44;100.00
26775;BME280;14362;51.902;7.626;2023-06-04T04:18:16;101515.63;;;11.45;100.00
26775;BME280;14362;51.902;7.626;2023-06-04T04:22:20;101509.94;;;11.50;100.00
26775;BME280;14362;51.902;7.626;2023-06-04T04:26:23;101523.69;;;11.60;100.00
26775;BME280;14362;51.902;7.626;2023-06-04T04:30:27;101519.97;;;11.65;100.00
26775;BME280;14362;51.902;7.626;2023-06-04T04:34:29;101524.31;;;11.71;100.00
26775;BME280;14362;51.902;7.626;2023-06-04T04:38:32;101530.38;;;11.86;100.00
26775;BME280;14362;51.902;7.626;2023-06-04T04:42:35;101518.69;;;11.84;100.00
26775;BME280;14362;51.902;7.626;2023-06-04T04:46:37;101524.38;;;11.93;100.00
26775;BME280;14362;51.902;7.626;2023-06-04T04:50:38;101525.47;;;12.05;100.00
26775;BME280;14362;51.902;7.626;2023-06-04T04:54:39;101522.88;;;12.09;100.00
26775;BME280;14362;51.902;7.626;2023-06-04T04:58:42;101525.75;;;12.17;100.00
26775;BME280;14362;51.902;7.626;2023-06-04T05:02:44;101527.19;;;12.36;100.00
26775;BME280;14362;51.902;7.626;2023-06-04T05:06:45;101531.47;;;12.56;100.00
26775;BME280;14362;51.902;7.626;2023-06-04T05:10:47;101524.63;;;12.62;100.00
26775;BME280;14362;51.902;7.626;2023-06-04T05:14:49;101528.78;;;12.73;100.00
26775;BME280;14362;51.902;7.626;2023-06-04T05:18:51;101524.34;;;12.94;100.00
26775;BME280;14362;51.902;7.626;2023-06-04T05:22:52;101527.09;;;13.16;100.00
26775;BME280;14362;51.902;7.626;2023-06-04T05:26:55;101528.81;;;13.33;100.00
26775;BME280;14362;51.902;7.626;2023-06-04T05:30:58;101529.97;;;13.97;100.00
26775;BME280;14362;51.902;7.626;2023-06-04T05:35:00;101530.69;;;14.61;100.00
26775;BME280;14362;51.902;7.626;2023-06-04T05:39:04;101526.22;;;15.23;95.61
26775;BME280;14362;51.902;7.626;2023-06-04T05:43:06;101528.06;;;15.56;88.50
26775;BME280;14362;51.902;7.626;2023-06-04T05:47:09;101531.72;;;16.35;79.42
26775;BME280;14362;51.902;7.626;2023-06-04T05:51:13;101522.59;;;16.70;73.84
26775;BME280;14362;51.902;7.626;2023-06-04T05:55:15;101528.06;;;16.87;73.04
26775;BME280;14362;51.902;7.626;2023-06-04T05:59:17;101537.03;;;17.34;69.53
26775;BME280;14362;51.902;7.626;2023-06-04T06:03:19;101532.81;;;17.51;67.49
26775;BME280;14362;51.902;7.626;2023-06-04T06:07:21;101532.56;;;17.68;63.22
26775;BME280;14362;51.902;7.626;2023-06-04T06:11:23;101529.03;;;17.59;64.34
26775;BME280;14362;51.902;7.626;2023-06-04T06:15:27;101527.03;;;17.36;65.61
26775;BME280;14362;51.902;7.626;2023-06-04T06:19:30;101538.38;;;17.16;66.15
26775;BME280;14362;51.902;7.626;2023-06-04T06:23:31;101540.44;;;17.07;66.55
26775;BME280;14362;51.902;7.626;2023-06-04T06:27:33;101539.38;;;17.11;67.90
26775;BME280;14362;51.902;7.626;2023-06-04T06:31:35;101548.91;;;17.19;69.16
26775;BME280;14362;51.902;7.626;2023-06-04T06:35:38;101536.72;;;17.27;65.94
26775;BME280;14362;51.902;7.626;2023-06-04T06:39:39;101551.19;;;17.25;63.38
26775;BME280;14362;51.902;7.626;2023-06-04T06:43:41;101548.28;;;17.34;62.85
26775;BME280;14362;51.902;7.626;2023-06-04T06:47:42;101554.19;;;17.52;62.57
26775;BME280;14362;51.902;7.626;2023-06-04T06:51:45;101553.00;;;17.65;61.18
26775;BME280;14362;51.902;7.626;2023-06-04T06:55:47;101562.06;;;17.71;61.29
26775;BME280;14362;51.902;7.626;2023-06-04T06:59:48;101579.69;;;17.92;60.89
26775;BME280;14362;51.902;7.626;2023-06-04T07:03:52;101573.91;;;18.00;58.52
26775;BME280;14362;51.902;7.626;2023-06-04T07:07:54;101576.97;;;17.95;59.89
26775;BME280;14362;51.902;7.626;2023-06-04T07:11:57;101575.81;;;18.08;59.38
26775;BME280;14362;51.902;7.626;2023-06-04T07:15:58;101574.16;;;18.07;59.28
26775;BME280;14362;51.902;7.626;2023-06-04T07:20:00;101572.84;;;18.17;59.23
26775;BME280;14362;51.902;7.626;2023-06-04T07:24:03;101579.53;;;18.36;59.11
26775;BME280;14362;51.902;7.626;2023-06-04T07:28:04;101568.09;;;18.45;58.00
26775;BME280;14362;51.902;7.626;2023-06-04T07:32:06;101570.88;;;18.68;57.24
26775;BME280;14362;51.902;7.626;2023-06-04T07:36:07;101569.53;;;18.78;60.17
26775;BME280;14362;51.902;7.626;2023-06-04T07:40:11;101582.31;;;18.87;57.25
26775;BME280;14362;51.902;7.626;2023-06-04T07:44:13;101568.41;;;18.94;54.91
26775;BME280;14362;51.902;7.626;2023-06-04T07:48:15;101569.69;;;18.97;55.48
26775;BME280;14362;51.902;7.626;2023-06-04T07:52:16;101570.31;;;19.18;52.09
26775;BME280;14362;51.902;7.626;2023-06-04T07:56:19;101563.31;;;19.27;52.24
26775;BME280;14362;51.902;7.626;2023-06-04T08:00:21;101571.06;;;19.30;51.47
26775;BME280;14362;51.902;7.626;2023-06-04T08:04:23;101568.06;;;19.39;51.47
26775;BME280;14362;51.902;7.626;2023-06-04T08:08:24;101568.91;;;19.55;50.77
26775;BME280;14362;51.902;7.626;2023-06-04T08:12:27;101571.16;;;19.64;50.29
26775;BME280;14362;51.902;7.626;2023-06-04T08:16:31;101583.06;;;19.70;49.96
26775;BME280;14362;51.902;7.626;2023-06-04T08:20:32;101583.94;;;19.89;48.02
26775;BME280;14362;51.902;7.626;2023-06-04T08:24:34;101575.91;;;19.91;49.23
26775;BME280;14362;51.902;7.626;2023-06-04T08:28:37;101575.44;;;20.20;46.80
26775;BME280;14362;51.902;7.626;2023-06-04T08:32:39;101585.22;;;20.23;47.48
26775;BME280;14362;51.902;7.626;2023-06-04T08:36:41;101590.16;;;20.26;47.22
26775;BME280;14362;51.902;7.626;2023-06-04T08:40:42;101583.13;;;20.54;44.99
26775;BME280;14362;51.902;7.626;2023-06-04T08:44:46;101580.28;;;20.54;45.38
26775;BME280;14362;51.902;7.626;2023-06-04T08:48:51;101583.34;;;20.64;44.35
26775;BME280;14362;51.902;7.626;2023-06-04T08:52:55;101581.63;;;20.60;44.14
26775;BME280;14362;51.902;7.626;2023-06-04T08:56:57;101585.78;;;20.81;42.71
26775;BME280;14362;51.902;7.626;2023-06-04T09:01:01;101586.53;;;20.63;41.43
26775;BME280;14362;51.902;7.626;2023-06-04T09:05:04;101584.50;;;20.79;39.23
26775;BME280;14362;51.902;7.626;2023-06-04T09:09:09;101601.22;;;20.84;40.59
26775;BME280;14362;51.902;7.626;2023-06-04T09:13:11;101588.41;;;20.74;39.02
26775;BME280;14362;51.902;7.626;2023-06-04T09:17:14;101582.00;;;20.77;39.02
26775;BME280;14362;51.902;7.626;2023-06-04T09:21:16;101584.66;;;20.86;37.20
26775;BME280;14362;51.902;7.626;2023-06-04T09:25:21;101587.72;;;20.96;36.67
26775;BME280;14362;51.902;7.626;2023-06-04T09:29:23;101584.81;;;20.93;35.81
26775;BME280;14362;51.902;7.626;2023-06-04T09:33:25;101582.19;;;21.03;35.61
26775;BME280;14362;51.902;7.626;2023-06-04T09:37:27;101582.25;;;21.07;36.29
26775;BME280;14362;51.902;7.626;2023-06-04T09:41:29;101584.34;;;21.10;36.13
26775;BME280;14362;51.902;7.626;2023-06-04T09:45:32;101579.94;;;21.12;36.37
26775;BME280;14362;51.902;7.626;2023-06-04T09:49:41;101587.75;;;21.19;35.26
26775;BME280;14362;51.902;7.626;2023-06-04T09:53:53;101584.19;;;21.22;34.44
26775;BME280;14362;51.902;7.626;2023-06-04T09:57:54;101572.16;;;21.28;35.90
26775;BME280;14362;51.902;7.626;2023-06-04T10:01:56;101571.00;;;21.33;34.22
26775;BME280;14362;51.902;7.626;2023-06-04T10:06:00;101576.19;;;21.27;34.98
26775;BME280;14362;51.902;7.626;2023-06-04T10:10:02;101561.41;;;21.37;37.05
26775;BME280;14362;51.902;7.626;2023-06-04T10:14:06;101560.69;;;21.44;34.96
26775;BME280;14362;51.902;7.626;2023-06-04T10:18:11;101562.09;;;21.53;35.13
26775;BME280;14362;51.902;7.626;2023-06-04T10:22:16;101569.66;;;21.46;34.36
26775;BME280;14362;51.902;7.626;2023-06-04T10:26:18;101566.19;;;21.56;34.77
26775;BME280;14362;51.902;7.626;2023-06-04T10:30:22;101564.66;;;21.58;36.04
26775;BME280;14362;51.902;7.626;2023-06-04T10:34:26;101567.91;;;21.82;34.09
26775;BME280;14362;51.902;7.626;2023-06-04T10:38:29;101568.09;;;21.70;34.73
26775;BME280;14362;51.902;7.626;2023-06-04T10:42:37;101570.69;;;21.79;35.33
26775;BME280;14362;51.902;7.626;2023-06-04T10:46:40;101573.34;;;21.69;34.38
26775;BME280;14362;51.902;7.626;2023-06-04T10:50:50;101573.16;;;21.80;33.86
26775;BME280;14362;51.902;7.626;2023-06-04T10:55:03;101564.25;;;21.82;34.65
26775;BME280;14362;51.902;7.626;2023-06-04T10:59:15;101561.13;;;21.90;35.21
26775;BME280;14362;51.902;7.626;2023-06-04T11:03:17;101562.91;;;21.98;34.52
26775;BME280;14362;51.902;7.626;2023-06-04T11:07:18;101560.81;;;21.95;34.28
26775;BME280;14362;51.902;7.626;2023-06-04T11:11:22;101556.78;;;21.96;35.25
26775;BME280;14362;51.902;7.626;2023-06-04T11:15:23;101558.09;;;22.02;34.90
26775;BME280;14362;51.902;7.626;2023-06-04T11:19:35;101564.13;;;22.23;34.16
26775;BME280;14362;51.902;7.626;2023-06-04T11:23:36;101545.91;;;22.02;35.00
26775;BME280;14362;51.902;7.626;2023-06-04T11:27:39;101544.59;;;22.22;34.42
26775;BME280;14362;51.902;7.626;2023-06-04T11:31:42;101546.69;;;22.25;34.87
26775;BME280;14362;51.902;7.626;2023-06-04T11:35:43;101552.31;;;22.21;34.35
26775;BME280;14362;51.902;7.626;2023-06-04T11:39:45;101559.78;;;22.07;33.91
26775;BME280;14362;51.902;7.626;2023-06-04T11:43:48;101550.13;;;22.11;33.14
26775;BME280;14362;51.902;7.626;2023-06-04T11:47:52;101549.00;;;22.16;35.16
26775;BME280;14362;51.902;7.626;2023-06-04T11:51:55;101542.75;;;22.33;32.74
26775;BME280;14362;51.902;7.626;2023-06-04T11:55:57;101535.88;;;22.08;34.07
26775;BME280;14362;51.902;7.626;2023-06-04T12:00:00;101541.84;;;22.25;33.90
26775;BME280;14362;51.902;7.626;2023-06-04T12:04:11;101549.16;;;22.00;41.50
26775;BME280;14362;51.902;7.626;2023-06-04T12:08:12;101537.44;;;21.79;38.99
26775;BME280;14362;51.902;7.626;2023-06-04T12:12:14;101536.19;;;21.77;37.10
26775;BME280;14362;51.902;7.626;2023-06-04T12:16:17;101535.84;;;21.82;35.99
26775;BME280;14362;51.902;7.626;2023-06-04T12:20:18;101524.63;;;21.89;36.42
26775;BME280;14362;51.902;7.626;2023-06-04T12:24:20;101528.69;;;22.14;36.06
26775;BME280;14362;51.902;7.626;2023-06-04T12:28:21;101532.88;;;22.23;35.11
26775;BME280;14362;51.902;7.626;2023-06-04T12:32:24;101523.38;;;22.38;34.82
26775;BME280;14362;51.902;7.626;2023-06-04T12:36:26;101521.31;;;22.35;35.31
26775;BME280;14362;51.902;7.626;2023-06-04T12:40:29;101521.06;;;22.47;33.53
26775;BME280;14362;51.902;7.626;2023-06-04T12:44:30;101527.38;;;22.63;32.91
26775;BME280;14362;51.902;7.626;2023-06-04T12:48:33;101526.56;;;22.63;33.16
26775;BME280;14362;51.902;7.626;2023-06-04T12:52:34;101525.78;;;22.66;33.92
26775;BME280;14362;51.902;7.626;2023-06-04T12:56:36;101525.78;;;22.66;32.87
26775;BME280;14362;51.902;7.626;2023-06-04T13:00:37;101507.91;;;22.65;32.25
26775;BME280;14362;51.902;7.626;2023-06-04T13:04:40;101517.81;;;22.78;32.60
26775;BME280;14362;51.902;7.626;2023-06-04T13:08:44;101512.63;;;22.87;32.66
26775;BME280;14362;51.902;7.626;2023-06-04T13:12:46;101512.91;;;23.08;32.21
26775;BME280;14362;51.902;7.626;2023-06-04T13:16:47;101509.16;;;23.04;31.81
26775;BME280;14362;51.902;7.626;2023-06-04T13:20:52;101509.34;;;22.85;31.49
26775;BME280;14362;51.902;7.626;2023-06-04T13:24:54;101502.13;;;22.91;33.21
26775;BME280;14362;51.902;7.626;2023-06-04T13:28:55;101493.88;;;23.12;32.73
26775;BME280;14362;51.902;7.626;2023-06-04T13:32:57;101504.13;;;23.20;32.29
26775;BME280;14362;51.902;7.626;2023-06-04T13:37:00;101492.78;;;23.27;33.67
26775;BME280;14362;51.902;7.626;2023-06-04T13:41:01;101498.22;;;23.39;33.57
26775;BME280;14362;51.902;7.626;2023-06-04T13:45:03;101498.22;;;23.39;34.83
26775;BME280;14362;51.902;7.626;2023-06-04T13:49:05;101494.94;;;23.37;33.20
26775;BME280;14362;51.902;7.626;2023-06-04T13:53:08;101489.25;;;23.37;33.51
26775;BME280;14362;51.902;7.626;2023-06-04T13:57:09;101490.47;;;23.39;32.92
26775;BME280;14362;51.902;7.626;2023-06-04T14:01:11;101491.66;;;23.35;34.04
26775;BME280;14362;51.902;7.626;2023-06-04T14:05:13;101481.69;;;23.55;32.88
26775;BME280;14362;51.902;7.626;2023-06-04T14:09:16;101477.63;;;23.56;33.39
26775;BME280;14362;51.902;7.626;2023-06-04T14:13:18;101486.22;;;23.63;33.16
26775;BME280;14362;51.902;7.626;2023-06-04T14:17:20;101474.47;;;23.68;33.46
26775;BME280;14362;51.902;7.626;2023-06-04T14:21:21;101480.66;;;23.77;32.76
26775;BME280;14362;51.902;7.626;2023-06-04T14:25:24;101468.94;;;23.85;33.30
26775;BME280;14362;51.902;7.626;2023-06-04T14:29:26;101478.38;;;23.96;33.04
26775;BME280;14362;51.902;7.626;2023-06-04T14:33:27;101481.22;;;23.99;32.23
26775;BME280;14362;51.902;7.626;2023-06-04T14:37:28;101477.63;;;24.06;32.13
26775;BME280;14362;51.902;7.626;2023-06-04T14:41:31;101476.31;;;23.93;32.05
26775;BME280;14362;51.902;7.626;2023-06-04T14:45:33;101469.84;;;23.99;31.27
26775;BME280;14362;51.902;7.626;2023-06-04T14:49:35;101465.41;;;24.02;31.39
26775;BME280;14362;51.902;7.626;2023-06-04T14:53:37;101465.41;;;24.05;32.02
26775;BME280;14362;51.902;7.626;2023-06-04T14:57:40;101468.69;;;24.07;32.51
26775;BME280;14362;51.902;7.626;2023-06-04T15:01:42;101471.25;;;24.30;31.84
26775;BME280;14362;51.902;7.626;2023-06-04T15:05:43;101469.09;;;24.13;32.27
26775;BME280;14362;51.902;7.626;2023-06-04T15:09:45;101461.00;;;24.18;32.13
26775;BME280;14362;51.902;7.626;2023-06-04T15:13:49;101460.91;;;24.04;30.74
26775;BME280;14362;51.902;7.626;2023-06-04T15:17:51;101450.72;;;24.00;31.46
26775;BME280;14362;51.902;7.626;2023-06-04T15:21:52;101455.66;;;24.06;31.93
26775;BME280;14362;51.902;7.626;2023-06-04T15:25:54;101446.06;;;24.39;31.20
26775;BME280;14362;51.902;7.626;2023-06-04T15:29:56;101445.13;;;24.17;32.20
26775;BME280;14362;51.902;7.626;2023-06-04T15:33:58;101441.84;;;24.12;32.49
26775;BME280;14362;51.902;7.626;2023-06-04T15:37:59;101438.19;;;24.18;33.32
26775;BME280;14362;51.902;7.626;2023-06-04T15:42:01;101436.97;;;24.16;32.13
26775;BME280;14362;51.902;7.626;2023-06-04T15:46:03;101443.47;;;24.16;32.52
26775;BME280;14362;51.902;7.626;2023-06-04T15:50:06;101448.38;;;24.16;32.58
26775;BME280;14362;51.902;7.626;2023-06-04T15:54:07;101445.94;;;24.14;32.27
26775;BME280;14362;51.902;7.626;2023-06-04T15:58:09;101433.94;;;23.88;32.89
26775;BME280;14362;51.902;7.626;2023-06-04T16:02:12;101441.34;;;23.99;33.78
26775;BME280;14362;51.902;7.626;2023-06-04T16:06:13;101435.59;;;23.89;33.38
26775;BME280;14362;51.902;7.626;2023-06-04T16:10:14;101427.09;;;23.92;33.39
26775;BME280;14362;51.902;7.626;2023-06-04T16:14:16;101420.97;;;23.87;32.71
26775;BME280;14362;51.902;7.626;2023-06-04T16:18:18;101416.06;;;23.84;33.25
26775;BME280;14362;51.902;7.626;2023-06-04T16:22:20;101413.16;;;23.77;34.03
26775;BME280;14362;51.902;7.626;2023-06-04T16:26:22;101413.16;;;23.77;33.78
26775;BME280;14362;51.902;7.626;2023-06-04T16:30:24;101409.41;;;23.66;34.48
26775;BME280;14362;51.902;7.626;2023-06-04T16:34:26;101407.41;;;23.74;35.32
26775;BME280;14362;51.902;7.626;2023-06-04T16:38:28;101404.16;;;23.75;34.44
26775;BME280;14362;51.902;7.626;2023-06-04T16:42:29;101399.66;;;23.67;34.78
26775;BME280;14362;51.902;7.626;2023-06-04T16:46:31;101408.28;;;23.78;34.68
26775;BME280;14362;51.902;7.626;2023-06-04T16:50:34;101398.38;;;23.65;35.27
26775;BME280;14362;51.902;7.626;2023-06-04T16:54:35;101396.78;;;23.67;34.79
26775;BME280;14362;51.902;7.626;2023-06-04T16:58:37;101409.78;;;23.65;33.91
26775;BME280;14362;51.902;7.626;2023-06-04T17:02:39;101405.22;;;23.53;34.63
26775;BME280;14362;51.902;7.626;2023-06-04T17:06:42;101407.75;;;23.65;34.36
26775;BME280;14362;51.902;7.626;2023-06-04T17:10:43;101401.56;;;23.56;35.16
26775;BME280;14362;51.902;7.626;2023-06-04T17:14:47;101404.00;;;23.54;35.18
26775;BME280;14362;51.902;7.626;2023-06-04T17:18:48;101400.88;;;23.73;34.74
26775;BME280;14362;51.902;7.626;2023-06-04T17:22:51;101398.31;;;23.54;35.42
26775;BME280;14362;51.902;7.626;2023-06-04T17:26:52;101408.19;;;23.71;34.74
26775;BME280;14362;51.902;7.626;2023-06-04T17:30:54;101399.16;;;23.58;35.34
26775;BME280;14362;51.902;7.626;2023-06-04T17:34:55;101399.88;;;23.45;35.85
26775;BME280;14362;51.902;7.626;2023-06-04T17:38:58;101406.41;;;23.49;36.25
26775;BME280;14362;51.902;7.626;2023-06-04T17:42:59;101407.19;;;23.46;36.13
26775;BME280;14362;51.902;7.626;2023-06-04T17:47:01;101406.47;;;23.56;36.61
26775;BME280;14362;51.902;7.626;2023-06-04T17:51:04;101403.97;;;23.51;35.97
26775;BME280;14362;51.902;7.626;2023-06-04T17:55:08;101406.47;;;23.56;35.29
26775;BME280;14362;51.902;7.626;2023-06-04T17:59:09;101410.56;;;23.62;36.17
26775;BME280;14362;51.902;7.626;2023-06-04T18:03:11;101409.69;;;23.51;36.07
26775;BME280;14362;51.902;7.626;2023-06-04T18:07:12;101407.94;;;23.36;37.28
26775;BME280;14362;51.902;7.626;2023-06-04T18:11:15;101403.88;;;23.37;37.22
26775;BME280;14362;51.902;7.626;2023-06-04T18:15:17;101404.22;;;23.28;37.32
26775;BME280;14362;51.902;7.626;2023-06-04T18:19:19;101406.91;;;23.14;36.98
26775;BME280;14362;51.902;7.626;2023-06-04T18:23:20;101411.13;;;22.87;37.71
26775;BME280;14362;51.902;7.626;2023-06-04T18:27:23;101409.72;;;22.71;38.29
26775;BME280;14362;51.902;7.626;2023-06-04T18:31:24;101416.13;;;22.61;38.98
26775;BME280;14362;51.902;7.626;2023-06-04T18:35:26;101408.59;;;22.46;39.94
26775;BME280;14362;51.902;7.626;2023-06-04T18:39:28;101405.53;;;22.58;38.90
26775;BME280;14362;51.902;7.626;2023-06-04T18:43:30;101407.72;;;22.39;39.72
26775;BME280;14362;51.902;7.626;2023-06-04T18:47:32;101409.47;;;22.21;40.37
26775;BME280;14362;51.902;7.626;2023-06-04T18:51:33;101412.13;;;22.07;40.70
26775;BME280;14362;51.902;7.626;2023-06-04T18:55:36;101410.78;;;21.97;41.04
26775;BME280;14362;51.902;7.626;2023-06-04T18:59:38;101405.44;;;21.92;41.61
26775;BME280;14362;51.902;7.626;2023-06-04T19:03:40;101411.31;;;21.77;41.95
26775;BME280;14362;51.902;7.626;2023-06-04T19:07:41;101418.50;;;21.97;41.80
26775;BME280;14362;51.902;7.626;2023-06-04T19:11:43;101424.31;;;21.56;45.56
26775;BME280;14362;51.902;7.626;2023-06-04T19:15:46;101416.78;;;21.41;45.68
26775;BME280;14362;51.902;7.626;2023-06-04T19:19:50;101421.03;;;21.28;45.29
26775;BME280;14362;51.902;7.626;2023-06-04T19:23:52;101418.78;;;21.14;48.24
26775;BME280;14362;51.902;7.626;2023-06-04T19:27:53;101415.34;;;21.05;49.48
26775;BME280;14362;51.902;7.626;2023-06-04T19:31:56;101426.84;;;20.90;47.68
26775;BME280;14362;51.902;7.626;2023-06-04T19:35:57;101436.16;;;20.71;51.17
26775;BME280;14362;51.902;7.626;2023-06-04T19:39:59;101430.16;;;20.54;50.55
26775;BME280;14362;51.902;7.626;2023-06-04T19:44:00;101441.63;;;20.42;51.56
26775;BME280;14362;51.902;7.626;2023-06-04T19:48:03;101445.44;;;20.31;51.41
26775;BME280;14362;51.902;7.626;2023-06-04T19:52:05;101452.09;;;20.19;52.70
26775;BME280;14362;51.902;7.626;2023-06-04T19:56:06;101458.78;;;20.30;48.41
26775;BME280;14362;51.902;7.626;2023-06-04T20:00:08;101462.94;;;20.17;50.66
26775;BME280;14362;51.902;7.626;2023-06-04T20:04:11;101461.75;;;19.99;53.84
26775;BME280;14362;51.902;7.626;2023-06-04T20:08:13;101474.50;;;19.93;56.08
26775;BME280;14362;51.902;7.626;2023-06-04T20:12:15;101475.16;;;19.87;57.85
26775;BME280;14362;51.902;7.626;2023-06-04T20:16:19;101487.22;;;19.68;60.67
26775;BME280;14362;51.902;7.626;2023-06-04T20:20:24;101493.47;;;19.58;63.31
26775;BME280;14362;51.902;7.626;2023-06-04T20:24:26;101499.38;;;19.38;66.90
26775;BME280;14362;51.902;7.626;2023-06-04T20:28:28;101502.13;;;19.35;68.19
26775;BME280;14362;51.902;7.626;2023-06-04T20:32:30;101501.59;;;19.29;69.54
26775;BME280;14362;51.902;7.626;2023-06-04T20:36:33;101497.13;;;19.28;70.66
26775;BME280;14362;51.902;7.626;2023-06-04T20:40:36;101511.88;;;19.22;72.32
26775;BME280;14362;51.902;7.626;2023-06-04T20:44:37;101505.72;;;19.04;74.57
26775;BME280;14362;51.902;7.626;2023-06-04T20:48:38;101517.44;;;18.91;76.82
26775;BME280;14362;51.902;7.626;2023-06-04T20:52:41;101515.69;;;18.86;78.80
26775;BME280;14362;51.902;7.626;2023-06-04T20:56:43;101519.78;;;18.73;80.21
26775;BME280;14362;51.902;7.626;2023-06-04T21:00:45;101522.84;;;18.68;82.13
26775;BME280;14362;51.902;7.626;2023-06-04T21:04:46;101519.09;;;18.64;82.66